Time;durP1;ratioP1;P1;durP2;ratioP2;P2;SDS_P1;SDS_P2;PMS_P1;PMS_P2;Temp;Humidity;BMP_temperature;BMP_pressure;BME280_temperature;BME280_humidity;BME280_pressure;Samples;Min_cycle;Max_cycle;Signal;HPM_P1;HPM_P2
2023/05/28 00:01:11;;;;;;;3.08;1.90;;;;;;;20.24;53.71;101218.50;4994374;28;20487;-44
2023/05/28 00:03:37;;;;;;;2.35;1.70;;;;;;;20.52;53.20;101214.66;4994576;28;20036;-44
2023/05/28 00:06:04;;;;;;;3.08;1.80;;;;;;;20.69;53.37;101212.56;4994493;28;20105;-45
2023/05/28 00:08:30;;;;;;;1.80;1.50;;;;;;;20.27;52.39;101205.22;4993986;28;20081;-44
2023/05/28 00:10:59;;;;;;;3.83;1.90;;;;;;;20.48;54.23;101199.94;4994128;28;20026;-46
2023/05/28 00:13:29;;;;;;;4.18;1.73;;;;;;;20.53;53.56;101205.41;4993841;28;20122;-44
2023/05/28 00:15:56;;;;;;;3.25;1.80;;;;;;;19.80;54.10;101207.03;4994258;28;20073;-43
2023/05/28 00:18:23;;;;;;;2.72;1.58;;;;;;;20.04;54.29;101201.00;4982169;28;20399;-45
2023/05/28 00:20:50;;;;;;;4.53;1.58;;;;;;;19.90;54.17;101194.34;4977538;28;20427;-45
2023/05/28 00:23:17;;;;;;;2.17;1.45;;;;;;;19.97;54.67;101199.56;4977072;28;20073;-45
2023/05/28 00:25:43;;;;;;;4.95;1.55;;;;;;;19.89;56.17;101200.88;4986053;28;20523;-44
2023/05/28 00:28:09;;;;;;;2.10;1.35;;;;;;;19.48;54.20;101203.16;4976980;28;20038;-44
2023/05/28 00:30:36;;;;;;;5.00;1.67;;;;;;;19.44;55.04;101195.81;4977142;28;20102;-46
2023/05/28 00:33:02;;;;;;;3.33;1.63;;;;;;;19.39;55.59;101203.91;4978628;28;20035;-44
2023/05/28 00:35:28;;;;;;;3.05;1.50;;;;;;;19.21;56.32;101205.88;4974670;28;20023;-43
2023/05/28 00:37:54;;;;;;;6.03;2.10;;;;;;;19.01;56.62;101207.53;4979170;28;20030;-44
2023/05/28 00:40:21;;;;;;;2.08;1.60;;;;;;;18.99;56.35;101202.38;4982361;28;20031;-45
2023/05/28 00:42:48;;;;;;;4.07;1.77;;;;;;;18.57;57.40;101211.00;4992324;28;20065;-43
2023/05/28 00:45:14;;;;;;;2.40;1.10;;;;;;;18.11;59.58;101204.94;4993434;28;20507;-44
2023/05/28 00:47:41;;;;;;;2.92;1.58;;;;;;;18.17;59.42;101206.66;4993518;28;20034;-43
2023/05/28 00:50:09;;;;;;;3.03;1.50;;;;;;;18.03;60.61;101199.91;4983925;28;20086;-43
2023/05/28 00:52:36;;;;;;;4.38;1.77;;;;;;;17.99;60.02;101203.34;4991887;28;20085;-43
2023/05/28 00:55:10;;;;;;;2.72;1.30;;;;;;;17.71;61.13;101206.91;4990772;28;20049;-42
2023/05/28 00:57:37;;;;;;;1.58;1.30;;;;;;;17.81;61.15;101190.88;4986528;28;20447;-46
2023/05/28 01:00:03;;;;;;;2.88;1.40;;;;;;;17.94;60.71;101193.28;4974967;28;20034;-44
2023/05/28 01:02:29;;;;;;;2.28;1.70;;;;;;;17.99;60.65;101196.06;4991238;28;20030;-43
2023/05/28 01:04:56;;;;;;;3.10;1.60;;;;;;;17.93;60.02;101203.28;4993098;28;20038;-44
2023/05/28 01:07:22;;;;;;;2.05;1.40;;;;;;;17.91;60.21;101189.16;4992724;28;20447;-42
2023/05/28 01:09:49;;;;;;;3.08;1.60;;;;;;;17.89;60.24;101199.44;4993401;28;20104;-42
2023/05/28 01:12:16;;;;;;;2.10;1.45;;;;;;;18.06;59.69;101202.13;4990816;28;20467;-42
2023/05/28 01:14:42;;;;;;;1.50;1.17;;;;;;;18.22;59.26;101196.97;4982403;28;20395;-42
2023/05/28 01:17:09;;;;;;;2.58;1.45;;;;;;;18.15;59.69;101197.91;4992803;28;20029;-42
2023/05/28 01:19:47;;;;;;;3.45;1.33;;;;;;;17.90;60.19;101197.53;5108738;27;21945;-42
2023/05/28 01:22:17;;;;;;;1.75;1.55;;;;;;;17.86;60.78;101190.97;5094923;28;20397;-45
2023/05/28 01:24:46;;;;;;;1.98;1.20;;;;;;;18.02;61.47;101187.44;5089339;28;20030;-45
2023/05/28 01:27:13;;;;;;;1.70;1.15;;;;;;;17.94;60.86;101185.16;5088493;28;20040;-43
2023/05/28 01:29:39;;;;;;;2.97;1.40;;;;;;;17.48;61.49;101173.50;5088918;28;20460;-47
2023/05/28 01:32:05;;;;;;;2.58;1.42;;;;;;;17.52;61.69;101180.06;5088014;28;20043;-43
2023/05/28 01:34:32;;;;;;;2.83;1.20;;;;;;;17.47;61.90;101179.97;5089219;28;20066;-46
2023/05/28 01:37:07;;;;;;;3.05;1.67;;;;;;;17.45;62.53;101181.31;5088487;28;20491;-43
2023/05/28 01:39:43;;;;;;;1.70;1.42;;;;;;;17.42;63.29;101185.28;5088625;28;20040;-45
2023/05/28 01:42:11;;;;;;;2.85;1.20;;;;;;;17.37;62.54;101185.19;5090022;28;20047;-44
2023/05/28 01:44:38;;;;;;;2.97;1.25;;;;;;;17.65;61.81;101176.22;5088649;28;20396;-47
2023/05/28 01:47:05;;;;;;;2.00;1.25;;;;;;;17.60;60.91;101178.84;5088573;28;20055;-43
2023/05/28 01:49:32;;;;;;;2.42;1.30;;;;;;;17.97;61.26;101173.00;5088280;28;20040;-43
2023/05/28 01:51:58;;;;;;;2.95;1.30;;;;;;;18.06;60.74;101179.66;5078532;28;20025;-42
2023/05/28 01:54:25;;;;;;;6.65;1.60;;;;;;;18.04;60.69;101171.75;5088380;28;20031;-43
2023/05/28 01:56:51;;;;;;;3.92;1.30;;;;;;;17.87;61.57;101173.66;5088616;28;20051;-44
2023/05/28 01:59:17;;;;;;;2.05;1.40;;;;;;;18.03;59.95;101167.41;5088570;28;20070;-45
2023/05/28 02:01:43;;;;;;;4.72;1.70;;;;;;;18.39;59.58;101170.66;5087539;28;20047;-45
2023/05/28 02:04:10;;;;;;;2.95;1.40;;;;;;;18.53;59.08;101171.09;5088334;28;20070;-44
2023/05/28 02:06:36;;;;;;;3.92;1.35;;;;;;;19.04;58.01;101171.75;5077878;28;20037;-44
2023/05/28 02:09:02;;;;;;;5.00;1.80;;;;;;;18.71;57.69;101171.66;5086044;28;20386;-44
2023/05/28 02:11:29;;;;;;;5.05;1.80;;;;;;;19.12;56.85;101177.56;5083270;28;20440;-43
2023/05/28 02:13:55;;;;;;;5.22;2.08;;;;;;;18.95;57.35;101176.81;5084647;28;20374;-43
2023/05/28 02:16:22;;;;;;;5.60;1.90;;;;;;;19.50;56.40;101176.59;5088489;28;20032;-43
2023/05/28 02:18:52;;;;;;;4.28;1.63;;;;;;;19.92;55.00;101173.16;5087923;28;20047;-45
2023/05/28 02:21:19;;;;;;;3.13;1.40;;;;;;;20.02;54.43;101175.16;5087913;28;20031;-43
2023/05/28 02:23:48;;;;;;;5.75;2.20;;;;;;;20.26;52.98;101181.00;5087377;28;20103;-43
2023/05/28 02:26:15;;;;;;;3.63;2.00;;;;;;;20.02;53.52;101170.53;5087950;28;20048;-43
2023/05/28 02:28:45;;;;;;;4.32;1.80;;;;;;;19.82;54.00;101174.97;5087848;28;20024;-43
2023/05/28 02:31:11;;;;;;;3.72;1.70;;;;;;;19.92;53.59;101172.34;5073560;28;20032;-43
2023/05/28 02:33:41;;;;;;;7.55;2.30;;;;;;;19.75;53.91;101172.50;5084210;28;20081;-45
2023/05/28 02:36:11;;;;;;;4.30;1.63;;;;;;;19.70;54.55;101180.59;5074959;28;20095;-47
2023/05/28 02:38:38;;;;;;;4.97;1.63;;;;;;;19.53;54.25;101177.97;5074048;28;20066;-48
2023/05/28 02:41:04;;;;;;;5.55;2.15;;;;;;;19.39;55.00;101180.28;5078952;28;20060;-44
2023/05/28 02:43:30;;;;;;;7.70;2.25;;;;;;;19.18;55.54;101183.84;5094021;28;20020;-46
2023/05/28 02:45:56;;;;;;;4.47;1.80;;;;;;;19.04;55.56;101188.84;5085467;28;20148;-48
2023/05/28 02:48:23;;;;;;;3.63;1.80;;;;;;;19.01;55.60;101186.66;5089372;28;20020;-47
2023/05/28 02:50:49;;;;;;;6.70;2.30;;;;;;;18.84;56.37;101181.31;5076467;28;20116;-47
2023/05/28 02:53:15;;;;;;;6.13;2.20;;;;;;;18.53;57.24;101185.47;5073371;28;20086;-47
2023/05/28 02:55:41;;;;;;;4.15;2.10;;;;;;;18.34;57.88;101189.53;5068663;28;20025;-44
2023/05/28 02:58:07;;;;;;;4.65;1.92;;;;;;;17.96;59.44;101187.59;5059259;28;20016;-47
2023/05/28 03:00:34;;;;;;;3.88;1.85;;;;;;;17.82;59.81;101176.25;5055729;28;20120;-44
2023/05/28 03:03:00;;;;;;;5.47;2.20;;;;;;;17.16;61.66;101186.72;5054051;28;20477;-45
2023/05/28 03:05:27;;;;;;;4.47;1.90;;;;;;;17.29;61.40;101185.59;5054157;28;20029;-45
2023/05/28 03:07:53;;;;;;;3.70;2.00;;;;;;;17.08;61.88;101177.09;5067613;28;20028;-45
2023/05/28 03:10:19;;;;;;;4.68;2.63;;;;;;;16.95;62.54;101176.56;5072780;28;20079;-45
2023/05/28 03:12:45;;;;;;;5.50;2.13;;;;;;;16.58;64.04;101172.25;5073827;28;20028;-45
2023/05/28 03:15:12;;;;;;;3.10;1.80;;;;;;;16.36;65.16;101163.13;5073790;28;20035;-46
2023/05/28 03:17:38;;;;;;;5.20;2.03;;;;;;;16.18;65.75;101166.78;5073621;28;20049;-44
2023/05/28 03:20:08;;;;;;;6.93;2.00;;;;;;;16.13;66.33;101168.53;5072888;28;20059;-45
2023/05/28 03:22:34;;;;;;;4.25;1.80;;;;;;;16.01;66.99;101173.94;5072563;28;20063;-47
2023/05/28 03:25:00;;;;;;;3.97;1.92;;;;;;;16.05;66.70;101178.66;5073960;28;20085;-46
2023/05/28 03:27:26;;;;;;;3.15;2.00;;;;;;;15.84;67.60;101171.09;5073526;28;20020;-46
2023/05/28 03:29:53;;;;;;;2.22;1.60;;;;;;;15.89;67.54;101190.13;5073801;28;20104;-44
2023/05/28 03:32:19;;;;;;;4.65;2.08;;;;;;;15.75;68.14;101188.69;5073153;28;20028;-47
2023/05/28 03:34:46;;;;;;;5.43;2.08;;;;;;;15.63;68.95;101196.75;5073380;28;20060;-48
2023/05/28 03:37:12;;;;;;;3.15;1.85;;;;;;;15.40;69.77;101180.47;5073617;28;20024;-45
2023/05/28 03:39:38;;;;;;;4.65;2.15;;;;;;;15.37;70.13;101180.91;5056363;28;20426;-46
2023/05/28 03:42:07;;;;;;;2.95;2.10;;;;;;;15.50;69.78;101184.25;5074615;28;20035;-44
2023/05/28 03:44:34;;;;;;;7.47;2.35;;;;;;;15.37;70.53;101176.34;5072483;28;20028;-48
2023/05/28 03:47:01;;;;;;;7.20;2.72;;;;;;;15.42;70.32;101173.78;5072381;28;20108;-47
2023/05/28 03:49:27;;;;;;;6.07;2.50;;;;;;;15.37;70.67;101164.72;5073042;28;20627;-45
2023/05/28 03:51:54;;;;;;;4.22;2.40;;;;;;;15.18;71.83;101174.75;5061118;28;20032;-44
2023/05/28 03:54:20;;;;;;;7.40;2.22;;;;;;;15.10;72.31;101178.56;5072553;28;20473;-43
2023/05/28 03:56:46;;;;;;;3.80;2.20;;;;;;;15.09;72.37;101179.63;5072031;28;20032;-46
2023/05/28 03:59:12;;;;;;;4.57;2.50;;;;;;;14.98;72.71;101188.47;5087666;28;20024;-45
2023/05/28 04:01:38;;;;;;;8.27;2.80;;;;;;;15.01;72.75;101186.16;5060766;28;20029;-47
2023/05/28 04:04:05;;;;;;;6.82;2.53;;;;;;;14.89;73.20;101192.56;5067082;28;20064;-45
2023/05/28 04:06:32;;;;;;;9.75;3.60;;;;;;;14.95;73.28;101192.47;5072504;28;20098;-43
2023/05/28 04:08:59;;;;;;;8.27;3.17;;;;;;;14.86;73.58;101191.13;5072418;28;20547;-45
2023/05/28 04:11:29;;;;;;;7.85;3.85;;;;;;;14.74;73.98;101192.94;5072212;28;20100;-44
2023/05/28 04:13:56;;;;;;;6.03;3.00;;;;;;;14.74;74.11;101185.66;5070228;28;20119;-43
2023/05/28 04:16:23;;;;;;;5.63;2.88;;;;;;;14.78;73.85;101186.03;5072609;28;20080;-44
2023/05/28 04:18:50;;;;;;;8.27;2.63;;;;;;;14.67;73.94;101186.81;5063480;28;20064;-45
2023/05/28 04:21:17;;;;;;;4.85;2.47;;;;;;;14.69;73.97;101182.81;5052026;28;20021;-47
2023/05/28 04:23:43;;;;;;;8.10;3.35;;;;;;;14.83;73.36;101201.56;5067787;28;20024;-45
2023/05/28 04:26:09;;;;;;;4.47;2.83;;;;;;;14.79;73.64;101187.69;5069342;28;20354;-44
2023/05/28 04:28:36;;;;;;;10.20;3.55;;;;;;;14.61;74.04;101193.09;5068350;28;20410;-44
2023/05/28 04:31:03;;;;;;;6.78;3.30;;;;;;;14.63;74.21;101193.69;5061113;28;20032;-47
2023/05/28 04:33:30;;;;;;;6.07;2.80;;;;;;;14.63;73.97;101183.72;5052199;28;20036;-44
2023/05/28 04:36:01;;;;;;;9.43;3.05;;;;;;;14.62;74.42;101186.66;5061418;28;20051;-47
2023/05/28 04:38:33;;;;;;;8.68;3.35;;;;;;;14.64;74.10;101184.53;5052134;28;20021;-44
2023/05/28 04:41:06;;;;;;;10.27;7.10;;;;;;;14.71;74.15;101182.59;5060300;28;20392;-46
2023/05/28 04:43:33;;;;;;;7.45;5.30;;;;;;;14.55;75.05;101180.47;5073604;28;20028;-46
2023/05/28 04:46:01;;;;;;;12.20;5.93;;;;;;;14.50;75.56;101192.78;5068688;28;20393;-46
2023/05/28 04:48:27;;;;;;;9.85;4.40;;;;;;;14.56;74.81;101198.31;5063245;28;20016;-45
2023/05/28 04:50:53;;;;;;;9.73;4.32;;;;;;;14.48;75.40;101197.53;5053966;28;20024;-43
2023/05/28 04:53:20;;;;;;;7.88;3.25;;;;;;;14.44;75.75;101192.81;5058374;28;20171;-43
2023/05/28 04:55:46;;;;;;;7.22;2.85;;;;;;;14.44;76.11;101199.03;5067212;28;20419;-44
2023/05/28 04:58:13;;;;;;;11.43;3.58;;;;;;;14.64;75.19;101192.63;5069367;28;20073;-43
2023/05/28 05:00:39;;;;;;;12.43;3.72;;;;;;;14.55;75.52;101193.94;5071203;28;20040;-44
2023/05/28 05:03:05;;;;;;;9.27;4.07;;;;;;;14.58;75.80;101196.22;5078859;28;20070;-44
2023/05/28 05:05:31;;;;;;;14.40;5.50;;;;;;;14.56;75.78;101179.47;5072104;28;20036;-44
2023/05/28 05:07:57;;;;;;;14.10;4.50;;;;;;;14.68;74.88;101181.19;5072174;28;20040;-46
2023/05/28 05:10:24;;;;;;;14.70;5.95;;;;;;;14.62;75.24;101182.06;5066483;28;20362;-44
2023/05/28 05:12:50;;;;;;;17.40;5.50;;;;;;;14.41;76.22;101187.88;5056992;28;20029;-44
2023/05/28 05:15:16;;;;;;;12.57;4.68;;;;;;;14.22;77.08;101176.25;5052065;28;20468;-43
2023/05/28 05:17:42;;;;;;;17.40;5.45;;;;;;;14.29;76.81;101192.34;5065080;28;20053;-47
2023/05/28 05:20:09;;;;;;;14.68;5.00;;;;;;;14.44;76.18;101188.25;5051592;28;20040;-43
2023/05/28 05:22:35;;;;;;;10.77;4.45;;;;;;;14.47;75.45;101184.31;5055113;28;20485;-44
2023/05/28 05:25:02;;;;;;;11.02;4.47;;;;;;;14.36;76.09;101188.53;5085323;28;20035;-47
2023/05/28 05:27:28;;;;;;;12.35;4.88;;;;;;;14.30;76.79;101175.94;5070681;28;20111;-46
2023/05/28 05:29:54;;;;;;;14.13;4.63;;;;;;;14.30;76.70;101175.94;5064593;28;20513;-45
2023/05/28 05:32:20;;;;;;;10.95;5.07;;;;;;;14.41;76.33;101177.91;5051019;28;20028;-47
2023/05/28 05:34:47;;;;;;;11.70;4.63;;;;;;;13.99;77.45;101169.63;5051280;28;20035;-44
2023/05/28 05:37:13;;;;;;;12.23;4.70;;;;;;;14.05;78.08;101167.06;5061138;28;20377;-44
2023/05/28 05:39:39;;;;;;;15.20;5.30;;;;;;;14.11;77.75;101180.50;5073003;28;20490;-43
2023/05/28 05:42:06;;;;;;;15.80;6.32;;;;;;;14.15;77.67;101178.16;5083960;28;20500;-44
2023/05/28 05:44:32;;;;;;;15.63;5.10;;;;;;;14.12;77.47;101173.25;5071252;28;20036;-44
2023/05/28 05:46:58;;;;;;;17.77;6.18;;;;;;;14.14;77.21;101176.53;5070334;28;20021;-47
2023/05/28 05:49:24;;;;;;;14.63;5.95;;;;;;;14.04;77.59;101168.13;5071192;28;20032;-47
2023/05/28 05:51:50;;;;;;;13.95;6.30;;;;;;;14.04;77.79;101166.25;5070884;28;20032;-44
2023/05/28 05:54:17;;;;;;;15.93;7.28;;;;;;;13.96;78.36;101169.22;5071323;28;20027;-44
2023/05/28 05:56:44;;;;;;;18.48;6.88;;;;;;;13.86;78.38;101175.09;5073625;28;20057;-45
2023/05/28 05:59:10;;;;;;;17.48;6.22;;;;;;;13.61;79.83;101169.72;5071105;28;20036;-47
2023/05/28 06:01:36;;;;;;;23.38;7.82;;;;;;;13.82;79.33;101176.56;5070537;28;20029;-44
2023/05/28 06:04:03;;;;;;;20.40;7.18;;;;;;;13.56;79.77;101184.88;5071324;28;20024;-47
2023/05/28 06:06:29;;;;;;;28.92;6.95;;;;;;;13.62;79.75;101176.75;5067231;28;20103;-44
2023/05/28 06:08:55;;;;;;;24.73;8.77;;;;;;;13.67;79.70;101184.97;5068011;28;20040;-45
2023/05/28 06:11:22;;;;;;;18.75;8.02;;;;;;;13.71;78.83;101188.91;5074380;28;20032;-45
2023/05/28 06:13:50;;;;;;;22.27;7.70;;;;;;;13.58;80.07;101183.59;5075100;28;20028;-44
2023/05/28 06:16:17;;;;;;;16.20;5.30;;;;;;;13.71;78.90;101182.66;5074612;28;20028;-46
2023/05/28 06:18:44;;;;;;;13.75;5.43;;;;;;;13.85;78.27;101178.03;5073991;28;20052;-45
2023/05/28 06:21:10;;;;;;;16.35;5.40;;;;;;;13.88;78.67;101170.34;5074060;28;20028;-44
2023/05/28 06:23:36;;;;;;;21.75;5.97;;;;;;;13.86;78.93;101174.28;5074374;28;20143;-43
2023/05/28 06:26:03;;;;;;;19.25;5.90;;;;;;;13.91;78.88;101177.97;5074577;28;20493;-46
2023/05/28 06:28:29;;;;;;;17.58;6.28;;;;;;;13.96;78.30;101171.94;5074183;28;20056;-44
2023/05/28 06:30:56;;;;;;;17.40;7.07;;;;;;;14.05;77.91;101164.38;5074441;28;20465;-44
2023/05/28 06:33:22;;;;;;;21.08;7.88;;;;;;;13.99;78.25;101169.63;5074213;28;20437;-48
2023/05/28 06:35:48;;;;;;;20.83;7.53;;;;;;;13.85;79.61;101167.25;5074469;28;20052;-45
2023/05/28 06:38:15;;;;;;;27.10;6.55;;;;;;;13.79;79.94;101179.72;5074273;28;20132;-47
2023/05/28 06:40:41;;;;;;;21.85;6.90;;;;;;;13.58;80.09;101182.78;5073318;28;20028;-48
2023/05/28 06:43:07;;;;;;;18.63;5.82;;;;;;;13.62;79.37;101173.22;5073274;28;20079;-45
2023/05/28 06:45:34;;;;;;;19.90;6.10;;;;;;;13.71;79.29;101179.97;5073728;28;20047;-45
2023/05/28 06:48:00;;;;;;;18.58;6.00;;;;;;;13.59;80.16;101176.34;5084900;28;20035;-45
2023/05/28 06:50:26;;;;;;;24.17;7.55;;;;;;;13.68;80.08;101183.13;5067516;28;20056;-45
2023/05/28 06:52:52;;;;;;;21.35;6.75;;;;;;;13.84;79.08;101182.59;5064797;28;20029;-44
2023/05/28 06:55:19;;;;;;;23.48;7.93;;;;;;;13.78;79.59;101182.63;5053955;28;20021;-44
2023/05/28 06:57:45;;;;;;;22.13;7.22;;;;;;;13.63;79.86;101178.38;5053480;28;20056;-44
2023/05/28 07:00:16;;;;;;;34.03;8.30;;;;;;;13.44;81.46;101174.81;5053687;28;20028;-45
2023/05/28 07:02:46;;;;;;;26.77;8.00;;;;;;;13.62;80.81;101181.31;5053848;28;20033;-45
2023/05/28 07:05:12;;;;;;;24.70;7.38;;;;;;;13.59;80.60;101177.16;5053813;28;20552;-44
2023/05/28 07:07:38;;;;;;;29.52;7.72;;;;;;;13.62;80.97;101173.22;5053628;28;20032;-46
2023/05/28 07:10:06;;;;;;;24.25;8.63;;;;;;;13.52;81.22;101180.94;5053132;28;20036;-44
2023/05/28 07:12:32;;;;;;;26.63;7.45;;;;;;;13.42;81.06;101184.94;5061973;28;20040;-44
2023/05/28 07:14:58;;;;;;;24.35;7.80;;;;;;;13.41;81.35;101172.53;5093787;28;20055;-47
2023/05/28 07:17:24;;;;;;;21.13;6.72;;;;;;;13.55;80.94;101172.44;5093379;28;20039;-44
2023/05/28 07:19:51;;;;;;;30.67;8.05;;;;;;;13.60;80.80;101167.22;5076635;28;20036;-45
2023/05/28 07:22:17;;;;;;;28.52;8.77;;;;;;;13.55;81.06;101164.38;5073232;28;20496;-43
2023/05/28 07:24:43;;;;;;;25.48;7.82;;;;;;;13.53;80.78;101158.38;5073587;28;20492;-46
2023/05/28 07:27:09;;;;;;;30.50;8.13;;;;;;;13.47;81.16;101152.00;5076387;28;20051;-47
2023/05/28 07:29:36;;;;;;;26.63;8.00;;;;;;;13.48;81.78;101156.34;5082285;28;20028;-47
2023/05/28 07:32:03;;;;;;;21.67;7.53;;;;;;;13.37;81.33;101152.47;5072850;28;20029;-43
2023/05/28 07:34:29;;;;;;;20.48;7.70;;;;;;;13.41;81.19;101158.25;5059751;28;20431;-42
2023/05/28 07:36:55;;;;;;;20.20;7.20;;;;;;;13.31;81.43;101157.91;5073328;28;20082;-46
2023/05/28 07:39:21;;;;;;;24.75;9.30;;;;;;;13.35;81.17;101151.06;5072329;28;20086;-44
2023/05/28 07:41:48;;;;;;;21.17;7.45;;;;;;;13.40;81.14;101149.38;5084420;28;20503;-42
2023/05/28 07:44:17;;;;;;;29.08;10.40;;;;;;;13.40;81.56;101143.19;5093011;28;20047;-43
2023/05/28 07:46:43;;;;;;;25.42;9.30;;;;;;;13.47;81.37;101142.09;5093413;28;20028;-43
2023/05/28 07:49:09;;;;;;;24.70;7.47;;;;;;;13.42;81.47;101147.28;5087181;28;20085;-43
2023/05/28 07:51:36;;;;;;;21.15;7.90;;;;;;;13.43;80.83;101140.84;5072503;28;20081;-44
2023/05/28 07:54:02;;;;;;;20.13;7.00;;;;;;;13.47;80.53;101139.38;5072631;28;20481;-46
2023/05/28 07:56:29;;;;;;;30.55;9.45;;;;;;;13.52;80.98;101140.63;5073085;28;20031;-46
2023/05/28 07:58:56;;;;;;;24.98;9.23;;;;;;;13.48;81.48;101143.72;5072660;28;20389;-45
2023/05/28 08:01:23;;;;;;;28.45;9.43;;;;;;;13.39;81.60;101139.66;5071957;28;20025;-46
2023/05/28 08:03:53;;;;;;;37.25;11.23;;;;;;;13.34;82.21;101142.19;5071503;28;20115;-45
2023/05/28 08:06:21;;;;;;;32.67;9.43;;;;;;;13.14;82.70;101130.69;5092692;28;20472;-44
2023/05/28 08:08:47;;;;;;;32.08;9.68;;;;;;;13.26;83.13;101125.47;5092558;28;20484;-43
2023/05/28 08:11:14;;;;;;;32.25;10.15;;;;;;;13.24;83.29;101133.75;5070474;28;20381;-46
2023/05/28 08:13:43;;;;;;;29.58;8.98;;;;;;;13.24;82.40;101124.88;5082998;28;20028;-43
2023/05/28 08:16:13;;;;;;;22.27;8.90;;;;;;;13.12;82.80;101120.16;5082915;28;20111;-45
2023/05/28 08:18:39;;;;;;;26.15;8.75;;;;;;;13.08;83.43;101123.50;5071963;28;20088;-44
2023/05/28 08:21:07;;;;;;;35.67;9.38;;;;;;;13.03;84.02;101121.44;5071409;28;20036;-48
2023/05/28 08:23:34;;;;;;;33.50;9.63;;;;;;;12.91;84.79;101121.31;5072205;28;20457;-43
2023/05/28 08:26:02;;;;;;;31.67;9.45;;;;;;;12.93;84.89;101124.59;5072322;28;20028;-45
2023/05/28 08:28:29;;;;;;;31.40;8.40;;;;;;;12.86;85.15;101115.75;5065158;28;20031;-43
2023/05/28 08:30:55;;;;;;;36.85;9.85;;;;;;;12.83;85.74;101115.38;5072418;28;20128;-44
2023/05/28 08:33:25;;;;;;;33.67;9.90;;;;;;;12.78;86.47;101112.50;5061827;28;20029;-44
2023/05/28 08:35:51;;;;;;;30.80;10.18;;;;;;;12.72;87.39;101119.53;5052048;28;20127;-44
2023/05/28 08:38:18;;;;;;;33.45;9.52;;;;;;;12.65;87.13;101108.81;5059155;28;20380;-46
2023/05/28 08:40:53;;;;;;;39.38;10.13;;;;;;;12.46;87.78;101117.78;5071750;28;20441;-45
2023/05/28 08:43:20;;;;;;;33.10;9.00;;;;;;;12.64;86.80;101117.09;5072122;28;20034;-46
2023/05/28 08:45:46;;;;;;;40.05;9.65;;;;;;;12.71;86.67;101107.13;5071934;28;20032;-44
2023/05/28 08:48:14;;;;;;;32.28;9.32;;;;;;;12.77;87.08;101111.69;5082504;28;20480;-44
2023/05/28 08:50:46;;;;;;;39.33;10.30;;;;;;;12.73;87.24;101109.63;5071992;28;20183;-43
2023/05/28 08:53:17;;;;;;;49.70;11.60;;;;;;;12.61;87.84;101106.78;5072093;28;20028;-43
2023/05/28 08:55:45;;;;;;;33.40;10.38;;;;;;;12.70;87.75;101110.84;5072003;28;20021;-44
2023/05/28 08:58:11;;;;;;;40.22;10.50;;;;;;;12.67;87.67;101116.66;5071472;28;20039;-48
2023/05/28 09:00:38;;;;;;;43.42;10.15;;;;;;;12.56;88.41;101103.91;5071062;28;20031;-44
2023/05/28 09:03:07;;;;;;;42.30;10.73;;;;;;;12.64;87.91;101099.09;5071727;28;20035;-44
2023/05/28 09:05:38;;;;;;;39.38;10.77;;;;;;;12.57;87.79;101101.00;5071821;28;20035;-48
2023/05/28 09:08:11;;;;;;;40.00;9.57;;;;;;;12.59;87.54;101112.34;5071520;28;20424;-44
2023/05/28 09:10:38;;;;;;;30.83;8.90;;;;;;;12.62;87.29;101097.69;5070332;28;20115;-45
2023/05/28 09:13:05;;;;;;;34.83;10.40;;;;;;;12.55;88.31;101097.72;5075909;22;20643;-46
2023/05/28 09:15:32;;;;;;;30.98;10.15;;;;;;;12.63;87.98;101096.63;5050674;28;20029;-45
2023/05/28 09:18:02;;;;;;;38.90;10.63;;;;;;;12.56;88.57;101093.16;5051454;28;20120;-45
2023/05/28 09:20:28;;;;;;;39.03;10.02;;;;;;;12.52;88.35;101083.88;5040108;28;20067;-44
2023/05/28 09:23:03;;;;;;;43.90;11.50;;;;;;;12.58;88.40;101091.09;5051552;28;20025;-44
2023/05/28 09:25:35;;;;;;;53.67;12.90;;;;;;;12.67;88.44;101087.13;5051583;28;20025;-44
2023/05/28 09:28:02;;;;;;;38.42;10.70;;;;;;;12.67;88.06;101071.00;5051178;28;20398;-43
2023/05/28 09:30:35;;;;;;;39.28;11.95;;;;;;;12.56;88.57;101077.06;5048357;28;20366;-44
2023/05/28 09:33:03;;;;;;;40.70;12.50;;;;;;;12.59;88.37;101076.63;5051233;28;20033;-43
2023/05/28 09:35:30;;;;;;;34.58;10.50;;;;;;;12.57;88.23;101073.34;5051378;28;20013;-47
2023/05/28 09:38:05;;;;;;;41.92;12.18;;;;;;;12.53;88.35;101070.22;5051318;28;20362;-44
2023/05/28 09:40:32;;;;;;;34.47;11.35;;;;;;;12.52;88.24;101082.03;5047434;28;20029;-47
2023/05/28 09:42:58;;;;;;;39.85;12.23;;;;;;;12.52;88.26;101079.34;5035348;28;20390;-45
2023/05/28 09:45:26;;;;;;;51.72;13.30;;;;;;;12.59;88.05;101079.31;5035163;28;20394;-47
2023/05/28 09:47:52;;;;;;;45.78;12.27;;;;;;;12.49;88.35;101078.91;5035404;28;20269;-46
2023/05/28 09:50:18;;;;;;;36.58;11.43;;;;;;;12.60;87.83;101075.56;5046008;28;20473;-46
2023/05/28 09:52:46;;;;;;;42.17;10.68;;;;;;;12.49;88.08;101070.88;5054256;28;20035;-43
2023/05/28 09:55:17;;;;;;;39.95;11.52;;;;;;;12.56;87.51;101069.81;5055386;28;20055;-47
2023/05/28 09:58:05;;;;;;;35.13;12.95;;;;;;;12.66;87.45;101072.88;5052461;28;20043;-44
2023/05/28 10:00:54;;;;;;;44.33;12.50;;;;;;;12.64;87.32;101074.94;5054618;28;20029;-47
2023/05/28 10:03:48;;;;;;;33.60;11.00;;;;;;;12.80;86.62;101088.91;5046409;28;20515;-44
2023/05/28 10:06:18;;;;;;;31.27;9.45;;;;;;;12.81;86.32;101086.00;5052580;28;20064;-43
2023/05/28 10:08:51;;;;;;;34.78;9.23;;;;;;;12.86;85.62;101080.81;5055343;28;20024;-43
2023/05/28 10:11:28;;;;;;;38.17;11.52;;;;;;;12.91;85.97;101086.38;5045465;28;20591;-46
2023/05/28 10:13:56;;;;;;;34.78;11.15;;;;;;;12.79;85.61;101081.91;5049566;28;20132;-47
2023/05/28 10:16:23;;;;;;;41.35;11.27;;;;;;;12.75;85.99;101084.19;5046563;28;20166;-48
2023/05/28 10:18:51;;;;;;;32.70;9.85;;;;;;;12.88;85.43;101078.75;5046985;28;20024;-47
2023/05/28 10:21:19;;;;;;;43.83;12.27;;;;;;;12.72;86.21;101091.88;5051074;28;20037;-44
2023/05/28 10:23:46;;;;;;;36.72;9.55;;;;;;;12.79;85.79;101080.03;5046131;28;20036;-45
2023/05/28 10:26:15;;;;;;;39.03;10.20;;;;;;;12.84;85.59;101077.53;5054978;28;20044;-46
2023/05/28 10:28:42;;;;;;;31.58;8.93;;;;;;;12.72;86.08;101081.94;5049551;28;20126;-44
2023/05/28 10:31:10;;;;;;;22.52;8.40;;;;;;;12.84;85.25;101077.53;5054510;28;20035;-45
2023/05/28 10:33:43;;;;;;;36.15;7.88;;;;;;;12.83;85.30;101067.84;5054781;28;20483;-45
2023/05/28 10:36:11;;;;;;;37.72;8.40;;;;;;;12.88;85.15;101076.06;5054778;28;20504;-44
2023/05/28 10:38:44;;;;;;;26.10;8.07;;;;;;;12.75;85.49;101076.13;5039426;28;20033;-44
2023/05/28 10:41:11;;;;;;;30.10;9.38;;;;;;;12.76;85.69;101069.72;5045379;28;20037;-44
2023/05/28 10:43:51;;;;;;;31.02;9.10;;;;;;;12.80;85.15;101080.88;5054979;28;20531;-44
2023/05/28 10:46:24;;;;;;;29.75;8.48;;;;;;;12.74;85.89;101079.84;5054319;28;20108;-46
2023/05/28 10:49:12;;;;;;;23.98;7.78;;;;;;;12.72;86.02;101068.50;5053558;28;20047;-45
2023/05/28 10:51:59;;;;;;;28.40;8.48;;;;;;;12.80;85.74;101062.06;5053632;28;20501;-46
2023/05/28 10:54:38;;;;;;;31.60;9.27;;;;;;;12.83;85.85;101062.47;5052683;28;20126;-45
2023/05/28 10:57:18;;;;;;;36.15;9.52;;;;;;;12.85;85.65;101064.94;5033485;28;20112;-43
2023/05/28 10:59:52;;;;;;;32.13;8.35;;;;;;;12.85;85.62;101054.19;5050573;28;20080;-43
2023/05/28 11:02:24;;;;;;;33.92;8.43;;;;;;;12.81;85.96;101056.47;5052200;28;20477;-45
2023/05/28 11:04:52;;;;;;;27.73;9.07;;;;;;;12.84;85.34;101058.72;5034028;28;20091;-44
2023/05/28 11:07:20;;;;;;;36.05;9.05;;;;;;;12.81;85.62;101059.16;5033674;28;20481;-45
2023/05/28 11:09:51;;;;;;;30.10;8.88;;;;;;;12.78;85.74;101056.91;5047213;28;20041;-46
2023/05/28 11:12:20;;;;;;;32.75;9.15;;;;;;;12.82;85.83;101059.97;5053461;28;20025;-44
2023/05/28 11:14:48;;;;;;;38.05;10.05;;;;;;;12.85;85.82;101056.88;5051968;28;20405;-46
2023/05/28 11:17:15;;;;;;;35.47;9.02;;;;;;;12.79;85.63;101061.25;5046298;28;20021;-43
2023/05/28 11:19:46;;;;;;;33.75;8.10;;;;;;;12.78;85.71;101064.16;5042582;28;20091;-47
2023/05/28 11:22:14;;;;;;;27.05;8.27;;;;;;;12.75;85.92;101057.31;5053409;28;20031;-45